createdAt,value
2023-03-08T00:01:22.900Z,15.07
2023-03-08T00:03:54.871Z,14.37
2023-03-08T00:06:22.783Z,14.07
2023-03-08T00:08:49.854Z,15.00
2023-03-08T00:11:17.974Z,12.00
2023-03-08T00:13:44.930Z,14.10
2023-03-08T00:16:14.081Z,13.03
2023-03-08T00:18:41.380Z,16.43
2023-03-08T00:21:13.344Z,18.37
2023-03-08T00:23:40.592Z,16.03
2023-03-08T00:26:08.335Z,16.90
2023-03-08T00:28:35.574Z,12.97
2023-03-08T00:31:08.313Z,13.37
2023-03-08T00:33:36.173Z,16.00
2023-03-08T00:36:11.750Z,14.10
2023-03-08T00:38:39.146Z,14.43
2023-03-08T00:41:06.412Z,15.37
2023-03-08T00:43:33.779Z,15.20
2023-03-08T00:46:04.220Z,16.50
2023-03-08T00:48:31.714Z,15.53
2023-03-08T00:50:58.790Z,17.40
2023-03-08T00:53:26.001Z,18.77
2023-03-08T00:55:55.512Z,17.70
2023-03-08T00:58:24.401Z,18.57
2023-03-08T01:00:52.065Z,16.70
2023-03-08T01:03:19.651Z,16.60
2023-03-08T01:05:51.843Z,16.27
2023-03-08T01:08:19.450Z,15.67
2023-03-08T01:10:49.822Z,15.73
2023-03-08T01:13:17.668Z,22.90
2023-03-08T01:15:44.988Z,19.07
2023-03-08T01:18:12.350Z,17.07
2023-03-08T01:20:39.515Z,17.10
2023-03-08T01:23:06.494Z,16.67
2023-03-08T01:25:33.601Z,18.43
2023-03-08T01:28:00.751Z,14.20
2023-03-08T01:30:28.721Z,18.50
2023-03-08T01:32:55.812Z,15.73
2023-03-08T01:35:22.906Z,15.93
2023-03-08T01:37:55.652Z,17.13
2023-03-08T01:40:23.285Z,17.10
2023-03-08T01:42:50.337Z,17.87
2023-03-08T01:45:54.953Z,16.13
2023-03-08T01:48:33.867Z,15.23
2023-03-08T01:51:06.952Z,16.33
2023-03-08T01:53:36.366Z,15.33
2023-03-08T01:56:03.606Z,14.77
2023-03-08T01:58:30.881Z,14.13
2023-03-08T02:00:58.168Z,17.80
2023-03-08T02:03:25.279Z,17.20
2023-03-08T02:05:52.599Z,17.43
2023-03-08T02:08:22.016Z,16.43
2023-03-08T02:10:50.898Z,14.83
2023-03-08T02:13:38.380Z,16.03
2023-03-08T02:16:11.366Z,18.40
2023-03-08T02:18:50.080Z,15.13
2023-03-08T02:21:17.634Z,16.77
2023-03-08T02:23:44.653Z,15.50
2023-03-08T02:26:11.724Z,16.90
2023-03-08T02:28:39.123Z,14.33
2023-03-08T02:31:06.597Z,16.10
2023-03-08T02:33:36.639Z,19.53
2023-03-08T02:36:05.797Z,15.43
2023-03-08T02:38:32.875Z,18.63
2023-03-08T02:41:00.479Z,17.47
2023-03-08T02:43:27.690Z,16.73
2023-03-08T02:45:54.682Z,16.70
2023-03-08T02:48:21.789Z,16.33
2023-03-08T02:50:48.903Z,14.90
2023-03-08T02:53:15.975Z,17.93
2023-03-08T02:55:44.745Z,16.20
2023-03-08T02:58:13.215Z,14.90
2023-03-08T03:00:40.513Z,14.20
2023-03-08T03:03:07.714Z,15.70
2023-03-08T03:05:34.719Z,17.07
2023-03-08T03:08:05.483Z,19.87
2023-03-08T03:10:32.513Z,16.97
2023-03-08T03:12:59.498Z,15.50
2023-03-08T03:15:29.983Z,17.53
2023-03-08T03:17:59.413Z,16.37
2023-03-08T03:20:26.676Z,18.00
2023-03-08T03:22:53.705Z,15.67
2023-03-08T03:25:26.370Z,18.20
2023-03-08T03:27:55.267Z,16.93
2023-03-08T03:30:23.199Z,19.97
2023-03-08T03:32:50.851Z,18.73
2023-03-08T03:35:23.742Z,16.57
2023-03-08T03:37:51.089Z,17.87
2023-03-08T03:40:18.573Z,17.43
2023-03-08T03:42:49.650Z,16.43
2023-03-08T03:45:16.808Z,19.63
2023-03-08T03:47:44.185Z,20.43
2023-03-08T03:50:11.969Z,21.53
2023-03-08T03:52:49.692Z,21.53
2023-03-08T03:55:16.949Z,28.73
2023-03-08T03:57:45.273Z,24.10
2023-03-08T04:00:16.544Z,34.37
2023-03-08T04:02:50.434Z,37.80
2023-03-08T04:05:19.560Z,36.90
2023-03-08T04:07:50.431Z,39.40
2023-03-08T04:10:18.951Z,38.00
2023-03-08T04:12:50.386Z,39.17
2023-03-08T04:15:19.296Z,43.77
2023-03-08T04:17:46.610Z,38.70
2023-03-08T04:20:14.673Z,36.90
2023-03-08T04:22:47.833Z,52.47
2023-03-08T04:25:21.508Z,44.73
2023-03-08T04:27:54.781Z,44.93
2023-03-08T04:30:22.421Z,44.87
2023-03-08T04:32:50.752Z,58.07
2023-03-08T04:35:19.295Z,42.73
2023-03-08T04:37:51.446Z,47.67
2023-03-08T04:40:20.825Z,58.33
2023-03-08T04:42:54.281Z,75.27
2023-03-08T04:45:26.270Z,69.37
2023-03-08T04:47:56.493Z,59.17
2023-03-08T04:50:24.053Z,57.83
2023-03-08T04:52:53.285Z,58.20
2023-03-08T04:55:20.915Z,80.53
2023-03-08T04:57:47.980Z,75.97
2023-03-08T05:00:15.478Z,64.77
2023-03-08T05:02:43.901Z,60.47
2023-03-08T05:05:16.416Z,46.90
2023-03-08T05:07:44.544Z,65.73
2023-03-08T05:10:12.204Z,43.10
2023-03-08T05:12:41.350Z,46.93
2023-03-08T05:15:09.915Z,42.33
2023-03-08T05:17:37.076Z,43.10
2023-03-08T05:20:05.933Z,40.67
2023-03-08T05:22:51.508Z,52.97
2023-03-08T05:27:51.971Z,49.50
2023-03-08T05:30:21.608Z,28.50
2023-03-08T05:32:50.058Z,32.00
2023-03-08T05:35:17.280Z,27.17
2023-03-08T05:37:44.853Z,25.97
2023-03-08T05:40:12.869Z,30.90
2023-03-08T05:42:43.209Z,28.80
2023-03-08T05:45:11.531Z,29.73
2023-03-08T05:47:40.102Z,26.30
2023-03-08T05:50:10.384Z,26.00
2023-03-08T05:52:42.619Z,25.20
2023-03-08T05:55:13.513Z,25.17
2023-03-08T05:57:41.567Z,33.20
2023-03-08T06:00:09.340Z,29.47
2023-03-08T06:02:43.134Z,27.33
2023-03-08T06:05:12.949Z,30.07
2023-03-08T06:07:41.766Z,28.80
2023-03-08T06:10:11.479Z,33.00
2023-03-08T06:12:39.520Z,33.23
2023-03-08T06:15:09.957Z,33.10
2023-03-08T06:17:38.081Z,34.80
2023-03-08T06:20:06.931Z,30.30
2023-03-08T06:22:37.027Z,32.90
2023-03-08T06:25:04.668Z,31.90
2023-03-08T06:27:35.348Z,27.63
2023-03-08T06:30:07.991Z,32.60
2023-03-08T06:32:37.743Z,34.13
2023-03-08T06:35:06.636Z,28.60
2023-03-08T06:37:37.532Z,30.60
2023-03-08T06:40:09.277Z,28.17
2023-03-08T06:42:41.635Z,25.57
2023-03-08T06:45:12.603Z,26.30
2023-03-08T06:47:39.695Z,29.27
2023-03-08T06:50:07.871Z,28.10
2023-03-08T06:52:37.939Z,30.00
2023-03-08T06:55:07.381Z,30.37
2023-03-08T06:57:34.417Z,31.70
2023-03-08T07:00:01.774Z,35.27
2023-03-08T07:02:32.164Z,36.60
2023-03-08T07:04:59.198Z,26.13
2023-03-08T07:07:26.200Z,31.90
2023-03-08T07:09:53.392Z,31.23
2023-03-08T07:12:20.553Z,30.23
2023-03-08T07:14:47.620Z,25.90
2023-03-08T07:17:14.739Z,23.10
2023-03-08T07:19:41.724Z,27.37
2023-03-08T07:22:08.865Z,23.80
2023-03-08T07:24:35.885Z,25.77
2023-03-08T07:27:02.876Z,22.43
2023-03-08T07:29:30.002Z,22.63
2023-03-08T07:31:57.248Z,23.60
2023-03-08T07:34:24.277Z,23.53
2023-03-08T07:36:51.367Z,25.33
2023-03-08T07:39:18.423Z,22.27
2023-03-08T07:41:47.392Z,21.30
2023-03-08T07:44:14.622Z,25.90
2023-03-08T07:46:41.943Z,21.10
2023-03-08T07:49:10.802Z,21.30
2023-03-08T07:51:38.188Z,19.47
2023-03-08T07:54:05.418Z,15.80
2023-03-08T07:56:32.415Z,19.60
2023-03-08T07:58:59.409Z,21.57
2023-03-08T08:01:26.578Z,18.53
2023-03-08T08:03:53.588Z,15.70
2023-03-08T08:06:20.732Z,16.95
2023-03-08T08:08:47.720Z,15.57
2023-03-08T08:11:17.427Z,16.50
2023-03-08T08:13:44.732Z,17.98
2023-03-08T08:16:12.176Z,13.98
2023-03-08T08:18:39.580Z,15.65
2023-03-08T08:21:12.200Z,12.13
2023-03-08T08:23:40.105Z,12.07
2023-03-08T08:26:19.015Z,11.15
2023-03-08T08:28:50.395Z,11.60
2023-03-08T08:31:21.370Z,12.48
2023-03-08T08:33:49.277Z,14.88
2023-03-08T08:36:18.929Z,14.25
2023-03-08T08:38:46.472Z,14.23
2023-03-08T08:41:15.627Z,15.45
2023-03-08T08:43:43.545Z,15.35
2023-03-08T08:46:10.744Z,12.77
2023-03-08T08:48:38.681Z,15.50
2023-03-08T08:51:07.006Z,11.00
2023-03-08T08:53:34.713Z,11.93
2023-03-08T08:56:26.558Z,11.80
2023-03-08T08:59:00.101Z,12.88
2023-03-08T09:01:30.419Z,13.10
2023-03-08T09:03:58.136Z,10.82
2023-03-08T09:06:26.692Z,9.95
2023-03-08T09:08:56.300Z,14.18
2023-03-08T09:11:25.915Z,10.35
2023-03-08T09:13:54.030Z,11.87
2023-03-08T09:16:27.252Z,12.52
2023-03-08T09:18:56.605Z,11.82
2023-03-08T09:21:24.346Z,10.23
2023-03-08T09:23:52.049Z,10.68
2023-03-08T09:26:19.162Z,9.83
2023-03-08T09:28:46.608Z,13.88
2023-03-08T09:31:18.751Z,12.03
2023-03-08T09:33:49.494Z,11.77
2023-03-08T09:36:16.788Z,11.50
2023-03-08T09:38:43.963Z,14.13
2023-03-08T09:41:42.693Z,13.43
2023-03-08T09:44:30.096Z,13.05
2023-03-08T09:47:07.467Z,12.80
2023-03-08T09:49:36.669Z,16.40
2023-03-08T09:52:13.166Z,16.13
2023-03-08T09:54:41.173Z,14.15
2023-03-08T09:57:17.329Z,11.95
2023-03-08T09:59:49.517Z,12.73
2023-03-08T10:02:44.296Z,12.65
2023-03-08T10:05:31.094Z,12.98
2023-03-08T10:08:16.648Z,12.10
2023-03-08T10:11:07.715Z,10.32
2023-03-08T10:13:37.666Z,11.90
2023-03-08T10:16:16.896Z,12.10
2023-03-08T10:18:57.561Z,14.35
2023-03-08T10:21:26.940Z,11.13
2023-03-08T10:24:10.106Z,11.20
2023-03-08T10:26:37.096Z,13.48
2023-03-08T10:29:04.461Z,12.68
2023-03-08T10:31:33.902Z,15.20
2023-03-08T10:34:21.843Z,12.43
2023-03-08T10:36:53.230Z,11.48
2023-03-08T10:39:21.484Z,16.38
2023-03-08T10:42:06.598Z,14.13
2023-03-08T10:44:42.808Z,13.40
2023-03-08T10:47:33.114Z,14.32
2023-03-08T10:50:21.069Z,10.40
2023-03-08T10:52:51.022Z,10.77
2023-03-08T10:55:21.512Z,12.88
2023-03-08T10:57:55.680Z,13.80
2023-03-08T11:00:37.369Z,12.52
2023-03-08T11:03:21.840Z,14.18
2023-03-08T11:05:53.514Z,13.40
2023-03-08T11:08:24.349Z,17.30
2023-03-08T11:11:02.681Z,17.17
2023-03-08T11:13:36.832Z,13.88
2023-03-08T11:16:43.952Z,15.65
2023-03-08T11:19:29.796Z,15.52
2023-03-08T11:22:30.477Z,13.25
2023-03-08T11:25:09.359Z,14.15
2023-03-08T11:28:10.050Z,12.20
2023-03-08T11:30:40.231Z,14.75
2023-03-08T11:33:25.651Z,15.02
2023-03-08T11:36:14.818Z,16.15
2023-03-08T11:38:43.124Z,16.40
2023-03-08T11:41:18.697Z,14.00
2023-03-08T11:44:11.363Z,13.85
2023-03-08T11:46:53.514Z,17.92
2023-03-08T11:49:47.560Z,17.08
2023-03-08T11:52:37.533Z,17.27
2023-03-08T11:55:23.136Z,16.35
2023-03-08T11:58:00.210Z,16.77
2023-03-08T12:03:19.830Z,15.55
2023-03-08T12:06:22.779Z,14.07
2023-03-08T12:09:01.752Z,15.38
2023-03-08T12:11:43.391Z,16.00
2023-03-08T12:14:35.437Z,12.93
2023-03-08T12:17:12.249Z,15.07
2023-03-08T12:19:48.522Z,14.18
2023-03-08T12:22:44.812Z,16.93
2023-03-08T12:25:29.356Z,16.50
2023-03-08T12:28:23.894Z,17.75
2023-03-08T12:31:29.669Z,16.70
2023-03-08T12:33:59.536Z,17.13
2023-03-08T12:36:38.261Z,15.13
2023-03-08T12:39:07.857Z,17.65
2023-03-08T12:41:35.110Z,15.07
2023-03-08T12:44:25.022Z,14.73
2023-03-08T12:47:03.717Z,16.20
2023-03-08T12:49:38.605Z,16.80
2023-03-08T12:52:17.843Z,19.90
2023-03-08T12:54:59.845Z,16.60
2023-03-08T12:57:55.058Z,16.08
2023-03-08T13:00:27.044Z,14.80
2023-03-08T13:03:25.757Z,17.90
2023-03-08T13:05:52.969Z,20.92
2023-03-08T13:08:29.022Z,19.38
2023-03-08T13:10:55.965Z,15.65
2023-03-08T13:13:40.985Z,18.55
2023-03-08T13:16:20.073Z,19.48
2023-03-08T13:18:51.459Z,24.47
2023-03-08T13:21:35.561Z,17.00
2023-03-08T13:24:25.719Z,17.65
2023-03-08T13:27:38.815Z,17.60
2023-03-08T13:30:20.907Z,19.05
2023-03-08T13:32:50.140Z,19.05
2023-03-08T13:35:18.077Z,15.98
2023-03-08T13:37:56.743Z,20.90
2023-03-08T13:40:24.365Z,18.67
2023-03-08T13:42:57.489Z,19.47
2023-03-08T13:45:25.990Z,21.58
2023-03-08T13:47:55.728Z,19.38
2023-03-08T13:50:25.421Z,20.73
2023-03-08T13:52:52.838Z,19.58
2023-03-08T13:55:25.678Z,17.50
2023-03-08T13:57:54.214Z,19.75
2023-03-08T14:00:27.979Z,17.03
2023-03-08T14:02:55.661Z,19.23
2023-03-08T14:05:28.828Z,17.53
2023-03-08T14:08:03.689Z,19.90
2023-03-08T14:10:45.060Z,24.20
2023-03-08T14:13:28.892Z,22.23
2023-03-08T14:15:59.524Z,18.60
2023-03-08T14:18:41.797Z,17.67
2023-03-08T14:21:16.477Z,24.90
2023-03-08T14:23:49.284Z,25.97
2023-03-08T14:26:33.999Z,26.97
2023-03-08T14:29:22.102Z,20.17
2023-03-08T14:32:11.466Z,22.40
2023-03-08T14:34:39.927Z,27.27
2023-03-08T14:37:13.018Z,21.43
2023-03-08T14:39:44.354Z,20.13
2023-03-08T14:42:37.150Z,21.33
2023-03-08T14:45:18.489Z,22.33
2023-03-08T14:47:52.019Z,19.10
2023-03-08T14:50:24.138Z,22.90
2023-03-08T14:52:54.875Z,25.33
2023-03-08T14:55:30.880Z,25.10
2023-03-08T14:58:02.209Z,22.23
2023-03-08T15:00:31.417Z,27.90
2023-03-08T15:02:59.962Z,25.03
2023-03-08T15:05:29.910Z,24.70
2023-03-08T15:07:59.836Z,24.77
2023-03-08T15:10:33.696Z,21.20
2023-03-08T15:13:01.087Z,21.57
2023-03-08T15:15:28.310Z,26.00
2023-03-08T15:17:56.206Z,22.70
2023-03-08T15:20:23.528Z,25.90
2023-03-08T15:22:54.607Z,25.57
2023-03-08T15:25:50.196Z,27.10
2023-03-08T15:28:19.413Z,32.97
2023-03-08T15:30:47.470Z,24.97
2023-03-08T15:33:14.650Z,30.43
2023-03-08T15:35:42.126Z,29.03
2023-03-08T15:38:13.998Z,21.77
2023-03-08T15:40:42.260Z,26.27
2023-03-08T15:43:10.005Z,22.23
2023-03-08T15:45:37.889Z,25.50
2023-03-08T15:48:07.395Z,25.23
2023-03-08T15:50:35.165Z,30.50
2023-03-08T15:53:02.134Z,25.57
2023-03-08T15:55:31.492Z,29.20
2023-03-08T15:57:58.920Z,24.83
2023-03-08T16:00:26.761Z,30.87
2023-03-08T16:02:54.196Z,33.63
2023-03-08T16:05:23.508Z,27.23
2023-03-08T16:07:55.199Z,30.53
2023-03-08T16:10:22.207Z,24.67
2023-03-08T16:12:50.501Z,24.47
2023-03-08T16:15:17.485Z,29.57
2023-03-08T16:17:44.884Z,25.03
2023-03-08T16:20:13.964Z,26.57
2023-03-08T16:22:41.705Z,26.63
2023-03-08T16:25:10.281Z,25.07
2023-03-08T16:27:38.343Z,31.03
2023-03-08T16:30:06.235Z,26.53
2023-03-08T16:32:33.388Z,24.27
2023-03-08T16:35:01.138Z,29.20
2023-03-08T16:37:28.843Z,22.90
2023-03-08T16:39:59.219Z,20.40
2023-03-08T16:42:26.293Z,28.03
2023-03-08T16:44:54.640Z,26.80
2023-03-08T16:47:23.208Z,29.13
2023-03-08T16:49:50.450Z,29.53
2023-03-08T16:52:18.277Z,26.07
2023-03-08T16:54:45.676Z,25.37
2023-03-08T16:57:19.726Z,25.30
2023-03-08T16:59:48.039Z,27.97
2023-03-08T17:02:20.811Z,23.63
2023-03-08T17:04:49.775Z,28.10
2023-03-08T17:07:17.503Z,30.27
2023-03-08T17:09:45.549Z,33.23
2023-03-08T17:12:12.487Z,34.30
2023-03-08T17:14:40.104Z,29.33
2023-03-08T17:17:07.421Z,31.90
2023-03-08T17:19:34.407Z,32.92
2023-03-08T17:22:01.359Z,25.97
2023-03-08T17:24:30.647Z,30.07
2023-03-08T17:26:57.654Z,25.25
2023-03-08T17:29:25.022Z,27.30
2023-03-08T17:31:52.199Z,27.25
2023-03-08T17:34:23.319Z,39.73
2023-03-08T17:36:51.680Z,27.27
2023-03-08T17:39:19.257Z,30.35
2023-03-08T17:41:46.535Z,28.73
2023-03-08T17:44:14.414Z,32.80
2023-03-08T17:46:41.565Z,28.50
2023-03-08T17:49:08.608Z,31.58
2023-03-08T17:51:35.582Z,27.95
2023-03-08T17:54:03.316Z,28.27
2023-03-08T17:56:32.203Z,31.70
2023-03-08T17:59:00.930Z,26.20
2023-03-08T18:01:30.866Z,26.30
2023-03-08T18:03:58.455Z,28.27
2023-03-08T18:06:31.466Z,28.55
2023-03-08T18:08:59.460Z,26.38
2023-03-08T18:11:26.841Z,27.98
2023-03-08T18:13:54.741Z,30.80
2023-03-08T18:16:23.788Z,29.40
2023-03-08T18:18:52.823Z,26.33
2023-03-08T18:21:21.232Z,25.55
2023-03-08T18:23:48.560Z,26.42
2023-03-08T18:26:19.133Z,24.75
2023-03-08T18:28:46.734Z,24.73
2023-03-08T18:31:21.056Z,26.58
2023-03-08T18:33:48.048Z,25.40
2023-03-08T18:36:15.563Z,27.42
2023-03-08T18:38:43.464Z,26.15
2023-03-08T18:41:15.302Z,27.10
2023-03-08T18:43:42.534Z,24.85
2023-03-08T18:46:12.214Z,22.77
2023-03-08T18:48:39.797Z,20.45
2023-03-08T18:51:06.936Z,24.55
2023-03-08T18:53:34.617Z,24.15
2023-03-08T18:56:04.208Z,21.92
2023-03-08T18:58:31.993Z,24.02
2023-03-08T19:01:00.565Z,20.15
2023-03-08T19:03:28.557Z,23.17
2023-03-08T19:05:56.057Z,20.05
2023-03-08T19:08:23.244Z,20.85
2023-03-08T19:10:50.296Z,19.23
2023-03-08T19:13:17.414Z,24.25
2023-03-08T19:15:44.500Z,18.73
2023-03-08T19:18:11.582Z,17.48
2023-03-08T19:20:40.733Z,19.73
2023-03-08T19:23:09.434Z,19.45
2023-03-08T19:25:56.790Z,15.43
2023-03-08T19:28:23.953Z,15.00
2023-03-08T19:30:50.993Z,15.55
2023-03-08T19:33:30.414Z,15.05
2023-03-08T19:35:59.351Z,12.68
2023-03-08T19:38:26.413Z,11.98
2023-03-08T19:40:53.414Z,13.68
2023-03-08T19:43:20.441Z,11.75
2023-03-08T19:45:50.766Z,12.10
2023-03-08T19:48:17.852Z,11.57
2023-03-08T19:50:46.533Z,11.50
2023-03-08T19:53:13.680Z,10.98
2023-03-08T19:55:51.144Z,11.40
2023-03-08T19:58:19.457Z,14.32
2023-03-08T20:00:47.455Z,10.23
2023-03-08T20:03:16.756Z,10.75
2023-03-08T20:05:46.202Z,11.00
2023-03-08T20:08:14.549Z,10.55
2023-03-08T20:10:41.822Z,10.27
2023-03-08T20:13:08.922Z,9.88
2023-03-08T20:15:35.992Z,10.75
2023-03-08T20:18:03.241Z,9.20
2023-03-08T20:20:30.346Z,10.70
2023-03-08T20:22:57.376Z,9.77
2023-03-08T20:25:24.369Z,8.57
2023-03-08T20:27:51.441Z,9.77
2023-03-08T20:30:18.508Z,7.68
2023-03-08T20:32:45.670Z,7.43
2023-03-08T20:35:15.097Z,8.85
2023-03-08T20:37:42.462Z,6.82
2023-03-08T20:40:13.611Z,6.88
2023-03-08T20:42:40.630Z,8.55
2023-03-08T20:45:08.173Z,6.13
2023-03-08T20:47:35.515Z,6.47
2023-03-08T20:50:03.184Z,6.15
2023-03-08T20:52:30.260Z,6.45
2023-03-08T20:54:57.340Z,5.82
2023-03-08T20:57:24.342Z,5.20
2023-03-08T20:59:51.442Z,5.50
2023-03-08T21:02:18.594Z,5.63
2023-03-08T21:04:45.604Z,5.78
2023-03-08T21:07:12.686Z,5.13
2023-03-08T21:09:39.677Z,6.53
2023-03-08T21:12:08.054Z,4.70
2023-03-08T21:14:35.026Z,5.65
2023-03-08T21:17:02.052Z,6.32
2023-03-08T21:19:29.065Z,5.80
2023-03-08T21:21:56.061Z,5.55
2023-03-08T21:24:23.180Z,4.50
2023-03-08T21:26:52.120Z,5.57
2023-03-08T21:29:20.830Z,5.28
2023-03-08T21:31:53.066Z,5.35
2023-03-08T21:34:20.539Z,4.68
2023-03-08T21:36:47.937Z,4.88
2023-03-08T21:39:15.701Z,5.03
2023-03-08T21:41:45.503Z,4.20
2023-03-08T21:44:15.645Z,3.78
2023-03-08T21:46:43.328Z,4.35
2023-03-08T21:49:19.757Z,4.65
2023-03-08T21:51:46.753Z,5.05
2023-03-08T21:54:14.541Z,4.90
2023-03-08T21:56:41.608Z,4.18
2023-03-08T21:59:08.679Z,5.70
2023-03-08T22:01:35.827Z,5.65
2023-03-08T22:04:04.220Z,6.25
2023-03-08T22:06:31.406Z,4.18
2023-03-08T22:08:58.937Z,4.68
2023-03-08T22:11:26.770Z,4.95
2023-03-08T22:13:59.307Z,4.60
2023-03-08T22:16:28.316Z,4.45
2023-03-08T22:18:58.260Z,4.80
2023-03-08T22:21:25.560Z,4.45
2023-03-08T22:23:54.053Z,3.80
2023-03-08T22:26:22.249Z,4.88
2023-03-08T22:28:49.376Z,4.95
2023-03-08T22:31:19.036Z,4.75
2023-03-08T22:33:46.606Z,4.70
2023-03-08T22:36:15.755Z,4.25
2023-03-08T22:38:43.446Z,5.88
2023-03-08T22:41:23.045Z,5.07
2023-03-08T22:43:50.555Z,4.38
2023-03-08T22:46:20.919Z,5.23
2023-03-08T22:48:48.602Z,5.80
2023-03-08T22:51:17.443Z,5.28
2023-03-08T22:53:44.585Z,4.78
2023-03-08T22:56:24.457Z,4.43
2023-03-08T22:58:52.232Z,5.20
2023-03-08T23:01:21.954Z,4.22
2023-03-08T23:03:49.919Z,4.10
2023-03-08T23:06:18.175Z,5.95
2023-03-08T23:08:46.065Z,3.80
2023-03-08T23:11:13.434Z,4.35
2023-03-08T23:13:41.472Z,4.78
2023-03-08T23:16:09.215Z,3.90
2023-03-08T23:18:36.633Z,4.30
2023-03-08T23:21:06.061Z,4.70
2023-03-08T23:23:33.373Z,4.57
2023-03-08T23:26:00.422Z,4.10
2023-03-08T23:28:27.384Z,3.53
2023-03-08T23:30:54.365Z,4.20
2023-03-08T23:33:21.366Z,5.03
2023-03-08T23:35:49.789Z,5.18
2023-03-08T23:38:16.751Z,6.05
2023-03-08T23:40:43.893Z,4.55
2023-03-08T23:43:10.881Z,4.90
2023-03-08T23:45:40.346Z,5.38
2023-03-08T23:48:07.829Z,4.37
2023-03-08T23:50:34.872Z,5.03
2023-03-08T23:53:01.852Z,4.03
2023-03-08T23:55:28.854Z,5.47
2023-03-08T23:57:55.951Z,4.07
